createdAt,value
2022-08-10T00:01:53.458Z,99372.09
2022-08-10T00:04:24.311Z,99369.81
2022-08-10T00:06:54.645Z,99367.28
2022-08-10T00:09:23.856Z,99365.25
2022-08-10T00:11:51.423Z,99358.50
2022-08-10T00:14:18.631Z,99355.22
2022-08-10T00:16:45.593Z,99368.25
2022-08-10T00:19:12.779Z,99367.69
2022-08-10T00:21:44.569Z,99369.13
2022-08-10T00:24:11.491Z,99368.84
2022-08-10T00:27:51.974Z,99359.63
2022-08-10T00:29:25.407Z,99365.31
2022-08-10T00:31:58.199Z,99362.19
2022-08-10T00:34:28.568Z,99360.97
2022-08-10T00:36:56.310Z,99362.97
2022-08-10T00:39:23.719Z,99359.56
2022-08-10T00:42:06.792Z,99357.19
2022-08-10T00:44:40.748Z,99359.81
2022-08-10T00:47:10.364Z,99348.59
2022-08-10T00:49:56.345Z,99354.81
2022-08-10T00:52:25.241Z,99357.47
2022-08-10T00:54:53.384Z,99357.81
2022-08-10T00:57:21.033Z,99373.22
2022-08-10T00:59:58.745Z,99364.25
2022-08-10T01:02:29.429Z,99369.44
2022-08-10T01:05:04.749Z,99370.22
2022-08-10T01:07:50.979Z,99367.25
2022-08-10T01:10:53.393Z,99368.06
2022-08-10T01:14:15.138Z,99365.31
2022-08-10T01:17:00.355Z,99364.06
2022-08-10T01:20:02.474Z,99373.13
2022-08-10T01:22:52.644Z,99370.63
2022-08-10T01:25:33.881Z,99373.28
2022-08-10T01:28:49.244Z,99368.34
2022-08-10T01:31:23.798Z,99361.47
2022-08-10T01:34:02.358Z,99370.41
2022-08-10T01:36:39.871Z,99367.44
2022-08-10T01:39:09.522Z,99364.34
2022-08-10T01:41:47.158Z,99365.03
2022-08-10T01:44:23.085Z,99370.31
2022-08-10T01:47:21.746Z,99369.38
2022-08-10T01:49:56.648Z,99371.63
2022-08-10T01:52:27.383Z,99361.25
2022-08-10T01:54:58.234Z,99361.34
2022-08-10T01:57:28.941Z,99361.00
2022-08-10T02:00:02.988Z,99366.50
2022-08-10T02:02:32.923Z,99363.75
2022-08-10T02:05:05.257Z,99362.03
2022-08-10T02:07:37.795Z,99361.94
2022-08-10T02:10:12.962Z,99371.63
2022-08-10T02:12:43.223Z,99368.53
2022-08-10T02:15:19.294Z,99372.06
2022-08-10T02:18:01.842Z,99370.75
2022-08-10T02:20:41.424Z,99370.31
2022-08-10T02:23:15.297Z,99371.78
2022-08-10T02:25:44.908Z,99380.75
2022-08-10T02:28:29.992Z,99377.78
2022-08-10T02:31:23.459Z,99383.72
2022-08-10T02:33:57.653Z,99371.72
2022-08-10T02:36:31.177Z,99378.25
2022-08-10T02:39:03.696Z,99385.94
2022-08-10T02:42:18.645Z,99379.16
2022-08-10T02:45:19.339Z,99389.13
2022-08-10T02:47:56.943Z,99381.56
2022-08-10T02:50:35.325Z,99385.22
2022-08-10T02:53:56.651Z,99389.66
2022-08-10T02:56:28.813Z,99381.81
2022-08-10T02:59:00.949Z,99393.28
2022-08-10T03:01:36.814Z,99384.16
2022-08-10T03:04:56.068Z,99376.84
2022-08-10T03:07:44.449Z,99379.69
2022-08-10T03:10:23.607Z,99381.25
2022-08-10T03:12:57.579Z,99380.09
2022-08-10T03:15:28.570Z,99378.22
2022-08-10T03:17:58.922Z,99380.44
2022-08-10T03:20:36.465Z,99383.69
2022-08-10T03:23:12.792Z,99384.56
2022-08-10T03:25:53.249Z,99392.84
2022-08-10T03:28:24.591Z,99396.91
2022-08-10T03:30:53.406Z,99394.38
2022-08-10T03:33:23.623Z,99393.31
2022-08-10T03:36:42.445Z,99399.78
2022-08-10T03:38:45.961Z,99397.69
2022-08-10T03:41:16.723Z,99391.94
2022-08-10T03:43:48.790Z,99391.03
2022-08-10T03:46:23.895Z,99401.94
2022-08-10T03:48:55.729Z,99401.91
2022-08-10T03:51:25.590Z,99398.50
2022-08-10T03:54:03.817Z,99400.41
2022-08-10T03:56:39.763Z,99388.88
2022-08-10T03:59:12.255Z,99397.00
2022-08-10T04:02:47.139Z,99395.06
2022-08-10T04:04:28.883Z,99397.00
2022-08-10T04:06:59.204Z,99401.81
2022-08-10T04:09:53.586Z,99406.34
2022-08-10T04:12:23.548Z,99405.09
2022-08-10T04:14:52.894Z,99409.91
2022-08-10T04:17:57.031Z,99415.72
2022-08-10T04:20:34.443Z,99416.88
2022-08-10T04:23:12.146Z,99420.94
2022-08-10T04:25:40.837Z,99422.06
2022-08-10T04:28:09.358Z,99426.25
2022-08-10T04:30:38.515Z,99422.88
2022-08-10T04:33:08.976Z,99422.84
2022-08-10T04:35:37.528Z,99421.75
2022-08-10T04:38:06.775Z,99420.47
2022-08-10T04:40:33.866Z,99427.44
2022-08-10T04:43:12.237Z,99423.56
2022-08-10T04:45:50.524Z,99421.63
2022-08-10T04:48:42.118Z,99420.09
2022-08-10T04:51:18.297Z,99421.03
2022-08-10T04:54:04.863Z,99415.72
2022-08-10T04:56:39.244Z,99426.72
2022-08-10T04:59:09.249Z,99420.91
2022-08-10T05:02:21.954Z,99417.72
2022-08-10T05:04:35.956Z,99417.66
2022-08-10T05:07:16.867Z,99415.09
2022-08-10T05:10:04.510Z,99425.28
2022-08-10T05:12:40.735Z,99422.41
2022-08-10T05:15:13.881Z,99421.88
2022-08-10T05:18:04.644Z,99419.59
2022-08-10T05:20:30.692Z,99422.44
2022-08-10T05:22:58.778Z,99423.31
2022-08-10T05:25:25.915Z,99426.44
2022-08-10T05:27:54.741Z,99428.31
2022-08-10T05:30:25.082Z,99433.06
2022-08-10T05:32:56.506Z,99426.81
2022-08-10T05:35:27.778Z,99437.66
2022-08-10T05:38:10.636Z,99431.75
2022-08-10T05:40:46.586Z,99431.22
2022-08-10T05:43:21.836Z,99432.59
2022-08-10T05:46:19.687Z,99431.00
2022-08-10T05:48:58.938Z,99437.06
2022-08-10T05:51:29.552Z,99439.16
2022-08-10T05:54:02.116Z,99435.25
2022-08-10T05:56:54.766Z,99432.66
2022-08-10T06:00:35.615Z,99433.63
2022-08-10T06:02:38.833Z,99437.09
2022-08-10T06:05:30.579Z,99439.63
2022-08-10T06:08:17.421Z,99449.72
2022-08-10T06:12:23.949Z,99443.03
2022-08-10T06:14:13.821Z,99441.31
2022-08-10T06:16:44.391Z,99445.13
2022-08-10T06:19:14.975Z,99445.81
2022-08-10T06:22:00.651Z,99446.06
2022-08-10T06:24:57.271Z,99442.06
2022-08-10T06:27:34.623Z,99439.16
2022-08-10T06:30:02.576Z,99443.88
2022-08-10T06:32:31.657Z,99437.44
2022-08-10T06:35:01.333Z,99432.75
2022-08-10T06:37:33.260Z,99427.72
2022-08-10T06:40:00.323Z,99428.63
2022-08-10T06:42:41.090Z,99420.66
2022-08-10T06:45:30.675Z,99431.75
2022-08-10T06:48:21.018Z,99432.03
2022-08-10T06:50:58.210Z,99423.28
2022-08-10T06:53:53.249Z,99422.34
2022-08-10T06:56:38.086Z,99423.88
2022-08-10T06:59:30.953Z,99427.75
2022-08-10T07:02:12.150Z,99425.72
2022-08-10T07:05:03.713Z,99425.28
2022-08-10T07:07:38.783Z,99421.66
2022-08-10T07:10:08.821Z,99429.84
2022-08-10T07:12:39.016Z,99426.97
2022-08-10T07:15:12.222Z,99427.19
2022-08-10T07:17:41.518Z,99423.91
2022-08-10T07:20:11.738Z,99432.47
2022-08-10T07:23:01.736Z,99426.47
2022-08-10T07:25:29.764Z,99424.00
2022-08-10T07:28:01.929Z,99423.50
2022-08-10T07:30:35.850Z,99428.16
2022-08-10T07:33:05.472Z,99417.47
2022-08-10T07:35:42.345Z,99414.63
2022-08-10T07:38:27.774Z,99414.94
2022-08-10T07:40:58.245Z,99417.94
2022-08-10T07:43:31.672Z,99417.06
2022-08-10T07:46:01.896Z,99413.81
2022-08-10T07:48:39.095Z,99416.81
2022-08-10T07:51:09.725Z,99415.88
2022-08-10T07:53:45.277Z,99412.25
2022-08-10T07:56:26.275Z,99411.72
2022-08-10T07:59:10.817Z,99418.69
2022-08-10T08:01:50.452Z,99422.03
2022-08-10T08:04:21.925Z,99410.69
2022-08-10T08:06:52.163Z,99404.94
2022-08-10T08:09:21.951Z,99417.03
2022-08-10T08:11:51.453Z,99409.28
2022-08-10T08:14:21.990Z,99413.41
2022-08-10T08:16:53.204Z,99415.94
2022-08-10T08:19:35.922Z,99427.19
2022-08-10T08:24:07.955Z,99424.91
2022-08-10T08:25:03.592Z,99422.22
2022-08-10T08:27:33.219Z,99425.81
2022-08-10T08:30:01.807Z,99423.50
2022-08-10T08:32:33.284Z,99433.91
2022-08-10T08:35:14.698Z,99436.69
2022-08-10T08:38:32.338Z,99422.44
2022-08-10T08:40:39.155Z,99429.25
2022-08-10T08:43:44.880Z,99419.31
2022-08-10T08:46:44.290Z,99420.50
2022-08-10T08:50:07.985Z,99415.72
2022-08-10T08:52:59.653Z,99422.84
2022-08-10T08:56:03.669Z,99423.63
2022-08-10T08:59:09.830Z,99421.97
2022-08-10T09:01:58.341Z,99419.13
2022-08-10T09:04:57.235Z,99411.41
2022-08-10T09:08:00.174Z,99404.19
2022-08-10T09:10:44.320Z,99403.63
2022-08-10T09:13:29.465Z,99395.97
2022-08-10T09:16:35.209Z,99402.25
2022-08-10T09:19:35.361Z,99404.94
2022-08-10T09:22:32.397Z,99398.06
2022-08-10T09:25:18.540Z,99389.28
2022-08-10T09:28:14.110Z,99382.09
2022-08-10T09:31:21.324Z,99402.88
2022-08-10T09:36:21.260Z,99395.97
2022-08-10T09:38:01.319Z,99395.34
2022-08-10T09:40:59.927Z,99392.81
2022-08-10T09:43:44.029Z,99395.47
2022-08-10T09:46:33.271Z,99381.28
2022-08-10T09:49:22.368Z,99396.47
2022-08-10T09:52:15.123Z,99385.63
2022-08-10T09:55:12.865Z,99394.16
2022-08-10T09:57:46.298Z,99383.72
2022-08-10T10:00:25.898Z,99390.13
2022-08-10T10:03:36.168Z,99384.31
2022-08-10T10:06:12.199Z,99385.06
2022-08-10T10:09:15.531Z,99390.72
2022-08-10T10:12:10.188Z,99407.63
2022-08-10T10:15:33.040Z,99380.38
2022-08-10T10:18:02.817Z,99380.59
2022-08-10T10:20:49.934Z,99373.97
2022-08-10T10:24:15.525Z,99383.06
2022-08-10T10:27:02.438Z,99372.63
2022-08-10T10:30:01.501Z,99378.34
2022-08-10T10:32:58.235Z,99372.97
2022-08-10T10:35:36.526Z,99366.25
2022-08-10T10:38:08.978Z,99375.31
2022-08-10T10:40:46.400Z,99365.06
2022-08-10T10:43:45.126Z,99376.78
2022-08-10T10:46:29.960Z,99372.47
2022-08-10T10:49:31.123Z,99367.06
2022-08-10T10:52:25.238Z,99365.09
2022-08-10T10:55:30.432Z,99353.47
2022-08-10T10:58:23.238Z,99340.13
2022-08-10T11:01:28.494Z,99353.53
2022-08-10T11:04:27.409Z,99350.69
2022-08-10T11:07:31.893Z,99352.59
2022-08-10T11:10:32.083Z,99342.22
2022-08-10T11:14:24.800Z,99329.63
2022-08-10T11:16:28.671Z,99340.94
2022-08-10T11:19:23.091Z,99340.03
2022-08-10T11:22:20.284Z,99336.41
2022-08-10T11:25:01.648Z,99331.34
2022-08-10T11:27:59.291Z,99330.69
2022-08-10T11:30:55.430Z,99335.88
2022-08-10T11:38:34.436Z,99342.97
2022-08-10T11:40:49.135Z,99323.91
2022-08-10T11:43:27.034Z,99322.00
2022-08-10T11:46:28.789Z,99324.72
2022-08-10T11:49:32.004Z,99329.97
2022-08-10T11:52:15.441Z,99331.56
2022-08-10T11:54:55.006Z,99329.97
2022-08-10T11:57:53.981Z,99323.19
2022-08-10T12:00:19.921Z,99312.00
2022-08-10T12:02:56.586Z,99302.06
2022-08-10T12:05:46.588Z,99318.78
2022-08-10T12:10:04.616Z,99302.16
2022-08-10T12:11:23.928Z,99293.09
2022-08-10T12:14:32.313Z,99302.91
2022-08-10T12:17:25.132Z,99307.56
2022-08-10T12:20:03.915Z,99301.59
2022-08-10T12:22:58.180Z,99301.91
2022-08-10T12:25:58.322Z,99310.41
2022-08-10T12:28:52.141Z,99296.06
2022-08-10T12:31:29.722Z,99309.50
2022-08-10T12:34:23.275Z,99295.38
2022-08-10T12:37:28.694Z,99300.09
2022-08-10T12:40:41.244Z,99293.03
2022-08-10T12:44:07.454Z,99281.91
2022-08-10T12:46:31.118Z,99270.47
2022-08-10T12:49:20.078Z,99265.63
2022-08-10T12:52:17.582Z,99270.41
2022-08-10T12:54:46.420Z,99262.00
2022-08-10T12:57:19.093Z,99263.16
2022-08-10T12:59:56.798Z,99274.50
2022-08-10T13:02:29.565Z,99260.41
2022-08-10T13:05:02.908Z,99254.81
2022-08-10T13:08:04.062Z,99256.59
2022-08-10T13:10:25.136Z,99247.09
2022-08-10T13:12:58.174Z,99249.00
2022-08-10T13:15:48.645Z,99248.28
2022-08-10T13:18:34.072Z,99254.03
2022-08-10T13:21:20.373Z,99242.34
2022-08-10T13:24:03.603Z,99247.88
2022-08-10T13:27:22.729Z,99245.53
2022-08-10T13:29:36.650Z,99234.31
2022-08-10T13:32:10.393Z,99235.56
2022-08-10T13:34:46.085Z,99227.69
2022-08-10T13:37:22.995Z,99228.97
2022-08-10T13:39:58.830Z,99216.00
2022-08-10T13:42:35.794Z,99216.19
2022-08-10T13:45:14.549Z,99219.19
2022-08-10T13:47:48.934Z,99212.31
2022-08-10T13:50:33.691Z,99218.91
2022-08-10T13:53:14.402Z,99218.81
2022-08-10T13:55:54.981Z,99205.91
2022-08-10T13:58:37.024Z,99202.34
2022-08-10T14:01:21.175Z,99206.56
2022-08-10T14:03:51.418Z,99214.41
2022-08-10T14:06:29.763Z,99207.84
2022-08-10T14:09:02.137Z,99201.09
2022-08-10T14:11:31.847Z,99196.88
2022-08-10T14:14:21.124Z,99184.47
2022-08-10T14:16:50.761Z,99188.97
2022-08-10T14:19:26.511Z,99194.44
2022-08-10T14:21:55.167Z,99185.16
2022-08-10T14:24:29.571Z,99183.09
2022-08-10T14:27:11.464Z,99186.34
2022-08-10T14:29:53.475Z,99186.44
2022-08-10T14:32:25.853Z,99171.06
2022-08-10T14:36:15.372Z,99160.19
2022-08-10T14:37:54.651Z,99170.72
2022-08-10T14:40:33.670Z,99173.06
2022-08-10T14:43:06.858Z,99160.47
2022-08-10T14:45:41.920Z,99159.13
2022-08-10T14:48:16.398Z,99154.97
2022-08-10T14:50:55.543Z,99153.06
2022-08-10T14:53:27.908Z,99164.41
2022-08-10T14:56:04.243Z,99158.44
2022-08-10T14:59:06.427Z,99154.22
2022-08-10T15:02:01.514Z,99143.97
2022-08-10T15:04:26.758Z,99139.69
2022-08-10T15:07:03.308Z,99145.16
2022-08-10T15:10:00.830Z,99143.88
2022-08-10T15:12:41.241Z,99133.56
2022-08-10T15:15:16.344Z,99141.34
2022-08-10T15:17:53.613Z,99127.03
2022-08-10T15:20:29.925Z,99135.13
2022-08-10T15:23:31.318Z,99130.16
2022-08-10T15:26:11.258Z,99143.00
2022-08-10T15:29:22.349Z,99138.94
2022-08-10T15:31:35.533Z,99129.28
2022-08-10T15:34:28.886Z,99137.28
2022-08-10T15:37:02.302Z,99143.28
2022-08-10T15:40:21.642Z,99139.50
2022-08-10T15:43:05.655Z,99123.31
2022-08-10T15:46:02.775Z,99114.19
2022-08-10T15:48:40.135Z,99112.81
2022-08-10T15:51:21.768Z,99117.56
2022-08-10T15:54:12.063Z,99114.38
2022-08-10T15:56:58.937Z,99111.13
2022-08-10T15:59:43.223Z,99123.41
2022-08-10T16:02:18.735Z,99116.03
2022-08-10T16:05:08.138Z,99113.38
2022-08-10T16:07:46.271Z,99103.97
2022-08-10T16:10:28.244Z,99098.53
2022-08-10T16:14:00.460Z,99100.34
2022-08-10T16:16:02.885Z,99096.59
2022-08-10T16:18:36.750Z,99110.31
2022-08-10T16:21:22.310Z,99114.34
2022-08-10T16:24:14.361Z,99107.31
2022-08-10T16:26:50.113Z,99098.63
2022-08-10T16:29:24.823Z,99089.94
2022-08-10T16:31:57.162Z,99099.63
2022-08-10T16:34:29.273Z,99094.97
2022-08-10T16:37:09.620Z,99097.41
2022-08-10T16:39:58.554Z,99088.16
2022-08-10T16:42:33.391Z,99088.78
2022-08-10T16:45:14.982Z,99088.03
2022-08-10T16:47:51.745Z,99088.19
2022-08-10T16:50:29.786Z,99083.56
2022-08-10T16:53:02.087Z,99084.34
2022-08-10T16:55:49.893Z,99083.56
2022-08-10T16:58:29.806Z,99076.28
2022-08-10T17:01:16.439Z,99078.06
2022-08-10T17:04:06.481Z,99072.84
2022-08-10T17:07:03.808Z,99072.84
2022-08-10T17:09:35.236Z,99072.84
2022-08-10T17:12:16.382Z,99076.91
2022-08-10T17:14:44.756Z,99084.03
2022-08-10T17:17:37.519Z,99078.69
2022-08-10T17:20:30.177Z,99078.69
2022-08-10T17:23:02.703Z,99081.22
2022-08-10T17:25:46.206Z,99069.38
2022-08-10T17:28:32.665Z,99080.94
2022-08-10T17:31:39.702Z,99073.47
2022-08-10T17:34:28.347Z,99073.22
2022-08-10T17:37:03.885Z,99075.28
2022-08-10T17:39:50.063Z,99071.41
2022-08-10T17:42:22.273Z,99070.22
2022-08-10T17:44:53.298Z,99066.31
2022-08-10T17:47:27.687Z,99063.16
2022-08-10T17:50:03.510Z,99069.94
2022-08-10T17:52:33.433Z,99070.47
2022-08-10T17:55:06.969Z,99068.59
2022-08-10T17:57:40.314Z,99061.06
2022-08-10T18:00:14.905Z,99067.88
2022-08-10T18:02:48.867Z,99073.09
2022-08-10T18:05:17.631Z,99078.28
2022-08-10T18:07:53.203Z,99077.13
2022-08-10T18:10:24.629Z,99088.78
2022-08-10T18:12:56.788Z,99086.06
2022-08-10T18:15:29.658Z,99079.66
2022-08-10T18:18:02.570Z,99086.94
2022-08-10T18:20:39.107Z,99088.22
2022-08-10T18:23:08.375Z,99091.91
2022-08-10T18:25:43.428Z,99087.63
2022-08-10T18:28:20.295Z,99082.09
2022-08-10T18:30:55.143Z,99085.78
2022-08-10T18:33:32.684Z,99086.22
2022-08-10T18:36:09.346Z,99087.94
2022-08-10T18:38:40.262Z,99090.75
2022-08-10T18:41:16.720Z,99095.56
2022-08-10T18:44:06.976Z,99094.41
2022-08-10T18:46:46.532Z,99096.94
2022-08-10T18:49:25.946Z,99096.59
2022-08-10T18:52:01.958Z,99094.34
2022-08-10T18:54:44.555Z,99094.13
2022-08-10T18:57:35.773Z,99097.41
2022-08-10T19:00:08.094Z,99097.47
2022-08-10T19:03:31.175Z,99104.72
2022-08-10T19:06:25.592Z,99112.28
2022-08-10T19:09:46.498Z,99115.94
2022-08-10T19:12:31.826Z,99117.94
2022-08-10T19:15:48.192Z,99115.19
2022-08-10T19:19:25.942Z,99127.50
2022-08-10T19:22:14.603Z,99128.72
2022-08-10T19:25:01.569Z,99130.31
2022-08-10T19:28:13.016Z,99129.50
2022-08-10T19:30:58.845Z,99133.47
2022-08-10T19:34:11.588Z,99135.81
2022-08-10T19:36:56.010Z,99133.44
2022-08-10T19:39:50.654Z,99135.03
2022-08-10T19:42:53.915Z,99130.66
2022-08-10T19:46:03.071Z,99134.22
2022-08-10T19:49:01.994Z,99135.00
2022-08-10T19:52:27.197Z,99141.72
2022-08-10T19:55:32.228Z,99142.09
2022-08-10T19:58:59.350Z,99141.31
2022-08-10T20:01:55.349Z,99149.56
2022-08-10T20:04:31.908Z,99144.00
2022-08-10T20:07:24.214Z,99149.50
2022-08-10T20:10:03.717Z,99151.47
2022-08-10T20:12:55.906Z,99145.09
2022-08-10T20:15:44.460Z,99150.59
2022-08-10T20:18:36.581Z,99155.34
2022-08-10T20:21:19.637Z,99154.09
2022-08-10T20:24:06.249Z,99154.47
2022-08-10T20:26:45.655Z,99157.16
2022-08-10T20:29:58.622Z,99151.94
2022-08-10T20:32:37.973Z,99159.03
2022-08-10T20:35:42.304Z,99164.56
2022-08-10T20:38:14.579Z,99160.59
2022-08-10T20:41:19.689Z,99165.31
2022-08-10T20:44:34.570Z,99165.19
2022-08-10T20:47:28.993Z,99158.00
2022-08-10T20:50:40.494Z,99162.66
2022-08-10T20:53:16.124Z,99157.47
2022-08-10T20:56:11.149Z,99156.19
2022-08-10T20:59:23.493Z,99154.00
2022-08-10T21:02:50.735Z,99153.47
2022-08-10T21:05:31.791Z,99151.56
2022-08-10T21:08:14.496Z,99152.69
2022-08-10T21:11:28.155Z,99153.06
2022-08-10T21:14:35.686Z,99167.13
2022-08-10T21:17:35.140Z,99155.25
2022-08-10T21:20:54.612Z,99160.03
2022-08-10T21:25:42.202Z,99164.03
2022-08-10T21:26:47.253Z,99164.38
2022-08-10T21:29:41.955Z,99160.13
2022-08-10T21:32:39.229Z,99161.34
2022-08-10T21:35:19.958Z,99161.63
2022-08-10T21:38:11.849Z,99161.13
2022-08-10T21:41:56.389Z,99164.09
2022-08-10T21:45:09.271Z,99154.13
2022-08-10T21:48:57.601Z,99158.53
2022-08-10T21:52:00.506Z,99156.75
2022-08-10T21:55:08.733Z,99169.47
2022-08-10T21:58:18.277Z,99160.84
2022-08-10T22:01:15.270Z,99156.91
2022-08-10T22:04:02.179Z,99169.41
2022-08-10T22:06:55.150Z,99161.59
2022-08-10T22:09:52.343Z,99164.38
2022-08-10T22:12:50.744Z,99155.09
2022-08-10T22:16:03.963Z,99167.13
2022-08-10T22:18:58.762Z,99163.06
2022-08-10T22:22:06.471Z,99156.63
2022-08-10T22:25:45.208Z,99155.13
2022-08-10T22:28:37.044Z,99153.16
2022-08-10T22:31:47.503Z,99157.69
2022-08-10T22:35:00.876Z,99160.72
2022-08-10T22:37:58.512Z,99160.16
2022-08-10T22:40:53.705Z,99156.47
2022-08-10T22:43:48.543Z,99159.47
2022-08-10T22:46:52.747Z,99153.88
2022-08-10T22:49:24.101Z,99165.03
2022-08-10T22:52:18.289Z,99172.31
2022-08-10T22:55:23.468Z,99169.06
2022-08-10T22:58:09.367Z,99164.38
2022-08-10T23:00:38.185Z,99180.66
2022-08-10T23:03:22.002Z,99176.81
2022-08-10T23:06:00.265Z,99175.41
2022-08-10T23:08:56.603Z,99165.31
2022-08-10T23:11:32.120Z,99168.31
2022-08-10T23:14:06.313Z,99166.03
2022-08-10T23:17:11.293Z,99172.88
2022-08-10T23:20:15.504Z,99181.75
2022-08-10T23:23:01.848Z,99180.44
2022-08-10T23:25:34.201Z,99175.47
2022-08-10T23:28:12.299Z,99169.25
2022-08-10T23:30:45.110Z,99167.13
2022-08-10T23:33:15.107Z,99167.03
2022-08-10T23:36:32.444Z,99168.91
2022-08-10T23:39:24.091Z,99167.94
2022-08-10T23:41:38.956Z,99161.59
2022-08-10T23:44:08.136Z,99157.56
2022-08-10T23:46:42.269Z,99149.91
2022-08-10T23:49:12.785Z,99166.09
2022-08-10T23:51:56.348Z,99157.97
2022-08-10T23:54:25.565Z,99148.03
2022-08-10T23:57:01.455Z,99149.19
2022-08-10T23:59:31.736Z,99154.63
